createdAt,value
2022-11-17T00:05:34.476Z,39.24
2022-11-17T00:12:24.616Z,39.18
2022-11-17T00:19:03.252Z,39.32
2022-11-17T00:25:35.126Z,39.29
2022-11-17T00:32:22.537Z,39.24
2022-11-17T00:38:57.513Z,38.96
2022-11-17T00:45:41.415Z,39.16
2022-11-17T00:52:14.587Z,38.98
2022-11-17T00:58:49.501Z,39.14
2022-11-17T01:05:33.839Z,39.25
2022-11-17T01:12:03.742Z,39.29
2022-11-17T01:18:28.880Z,39.3
2022-11-17T01:25:12.379Z,39.42
2022-11-17T01:31:55.053Z,39.35
2022-11-17T01:38:31.055Z,39.41
2022-11-17T01:45:19.201Z,39.59
2022-11-17T01:52:10.226Z,39.45
2022-11-17T01:59:10.080Z,39.64
2022-11-17T02:06:02.656Z,39.83
2022-11-17T02:12:37.187Z,39.89
2022-11-17T02:19:11.829Z,39.95
2022-11-17T02:26:13.702Z,40
2022-11-17T02:33:28.837Z,39.84
2022-11-17T02:40:42.656Z,39.9
2022-11-17T02:48:01.303Z,39.91
2022-11-17T02:54:53.561Z,39.58
2022-11-17T03:01:43.908Z,39.28
2022-11-17T03:08:55.788Z,39.43
2022-11-17T03:16:07.071Z,39.29
2022-11-17T03:23:35.558Z,39.28
2022-11-17T03:30:40.863Z,39.17
2022-11-17T03:37:46.319Z,39.33
2022-11-17T03:44:45.782Z,39.34
2022-11-17T03:51:44.960Z,39.37
2022-11-17T03:58:30.787Z,39.39
2022-11-17T04:05:24.080Z,39.31
2022-11-17T04:11:56.291Z,39.28
2022-11-17T04:18:33.283Z,39.41
2022-11-17T04:25:03.117Z,39.24
2022-11-17T04:31:46.909Z,39.34
2022-11-17T04:38:28.741Z,39.34
2022-11-17T04:45:03.574Z,39.46
2022-11-17T04:51:40.443Z,39.36
2022-11-17T04:58:23.504Z,39.57
2022-11-17T05:04:58.274Z,39.58
2022-11-17T05:11:29.970Z,39.61
2022-11-17T05:18:00.982Z,39.67
2022-11-17T05:24:49.610Z,39.7
2022-11-17T05:31:27.895Z,39.55
2022-11-17T05:37:56.710Z,39.57
2022-11-17T05:44:24.258Z,39.56
2022-11-17T05:50:57.815Z,39.48
2022-11-17T05:57:41.568Z,39.54
2022-11-17T06:04:33.915Z,39.58
2022-11-17T06:11:05.644Z,39.3
2022-11-17T06:17:32.920Z,39.33
2022-11-17T06:24:20.602Z,39.08
2022-11-17T06:30:52.023Z,39.11
2022-11-17T06:37:34.299Z,39.28
2022-11-17T06:44:14.320Z,39.06
2022-11-17T06:50:59.846Z,39.21
2022-11-17T06:57:32.757Z,39.19
2022-11-17T07:04:03.955Z,38.28
2022-11-17T07:10:36.298Z,36.86
2022-11-17T07:17:07.242Z,36.95
2022-11-17T07:23:38.252Z,36.89
2022-11-17T07:30:12.009Z,37.84
2022-11-17T07:36:48.329Z,38.1
2022-11-17T07:43:17.768Z,37.95
2022-11-17T07:50:01.133Z,38.42
2022-11-17T07:56:52.263Z,38.33
2022-11-17T08:03:42.116Z,38.05
2022-11-17T08:10:35.269Z,38.22
2022-11-17T08:17:01.355Z,38.47
2022-11-17T08:23:33.390Z,38.48
2022-11-17T08:30:03.304Z,38.31
2022-11-17T08:36:45.236Z,38.46
2022-11-17T08:43:21.557Z,38.48
2022-11-17T08:50:08.689Z,38.58
2022-11-17T08:56:55.435Z,38.68
2022-11-17T09:03:33.048Z,38.56
2022-11-17T09:10:04.655Z,38.49
2022-11-17T09:16:44.615Z,38.26
2022-11-17T09:23:45.620Z,38.24
2022-11-17T09:30:46.341Z,38.05
2022-11-17T09:37:47.233Z,37.94
2022-11-17T09:44:33.511Z,37.95
2022-11-17T09:51:45.214Z,37.98
2022-11-17T09:59:05.425Z,38.08
2022-11-17T10:06:09.409Z,38.16
2022-11-17T10:13:16.146Z,37.98
2022-11-17T10:20:23.931Z,38.1
2022-11-17T10:27:30.101Z,38.38
2022-11-17T10:34:41.294Z,38.48
2022-11-17T10:41:36.176Z,38.47
2022-11-17T10:48:54.115Z,38.54
2022-11-17T10:56:10.638Z,38.64
2022-11-17T11:03:17.028Z,38.72
2022-11-17T11:10:07.345Z,38.58
2022-11-17T11:17:18.538Z,38.73
2022-11-17T11:24:04.429Z,38.96
2022-11-17T11:31:06.721Z,38.74
2022-11-17T11:38:19.371Z,38.75
2022-11-17T11:45:13.137Z,38.85
2022-11-17T11:52:18.280Z,38.9
2022-11-17T11:59:52.213Z,38.62
2022-11-17T12:07:29.771Z,38.65
2022-11-17T12:14:56.768Z,38.89
2022-11-17T12:22:39.504Z,38.85
2022-11-17T12:30:26.114Z,39.05
2022-11-17T12:37:45.470Z,38.86
2022-11-17T12:45:48.648Z,38.9
2022-11-17T12:52:52.885Z,38.87
2022-11-17T13:00:07.373Z,38.66
2022-11-17T13:07:15.401Z,38.73
2022-11-17T13:14:21.641Z,38.58
2022-11-17T13:21:27.376Z,38.54
2022-11-17T13:28:27.614Z,38.56
2022-11-17T13:35:37.130Z,38.45
2022-11-17T13:42:26.744Z,38.36
2022-11-17T13:49:36.605Z,38.47
2022-11-17T13:56:42.349Z,38.5
2022-11-17T14:03:37.825Z,38.68
2022-11-17T14:10:54.893Z,38.52
2022-11-17T14:18:00.028Z,38.59
2022-11-17T14:25:03.404Z,38.54
2022-11-17T14:31:50.625Z,38.59
2022-11-17T14:38:32.723Z,38.63
2022-11-17T14:45:03.409Z,38.69
2022-11-17T14:51:49.703Z,38.74
2022-11-17T14:58:29.444Z,38.54
2022-11-17T15:05:24.232Z,38.5
2022-11-17T15:12:07.432Z,38.69
2022-11-17T15:18:41.175Z,38.74
2022-11-17T15:25:27.448Z,38.72
2022-11-17T15:32:37.664Z,38.76
2022-11-17T15:39:22.348Z,38.85
2022-11-17T15:46:03.434Z,38.97
2022-11-17T15:53:06.518Z,39.07
2022-11-17T15:59:46.798Z,39.06
2022-11-17T16:06:44.242Z,39.14
2022-11-17T16:13:27.536Z,39.17
2022-11-17T16:20:22.608Z,39.07
2022-11-17T16:27:04.093Z,38.88
2022-11-17T16:33:40.151Z,38.67
2022-11-17T16:40:26.627Z,38.55
2022-11-17T16:47:00.155Z,38.67
2022-11-17T16:53:37.604Z,38.69
2022-11-17T17:00:09.669Z,38.67
2022-11-17T17:06:49.637Z,38.52
2022-11-17T17:13:25.332Z,38.49
2022-11-17T17:19:53.597Z,38.79
2022-11-17T17:26:23.552Z,39
2022-11-17T17:32:55.551Z,38.98
2022-11-17T17:39:33.292Z,39.04
2022-11-17T17:46:17.174Z,38.99
2022-11-17T17:53:04.963Z,41.15
2022-11-17T17:59:37.727Z,42.76
2022-11-17T18:06:11.071Z,42.41
2022-11-17T18:12:42.070Z,42.44
2022-11-17T18:19:20.478Z,42.81
2022-11-17T18:25:52.111Z,42.83
2022-11-17T18:32:26.257Z,42.9
2022-11-17T18:38:59.485Z,42.48
2022-11-17T18:45:49.259Z,42.06
2022-11-17T18:52:31.467Z,41.85
2022-11-17T18:59:22.473Z,41.48
2022-11-17T19:05:55.084Z,41.23
2022-11-17T19:13:10.565Z,42.1
2022-11-17T19:20:48.327Z,42.49
2022-11-17T19:28:28.603Z,42.5
2022-11-17T19:36:08.179Z,42.47
2022-11-17T19:43:54.758Z,42.58
2022-11-17T19:51:49.607Z,42.5
2022-11-17T19:59:37.625Z,42.15
2022-11-17T20:07:15.607Z,42.04
2022-11-17T20:14:50.854Z,42.18
2022-11-17T20:22:36.012Z,42.05
2022-11-17T20:30:15.906Z,42.41
2022-11-17T20:38:04.044Z,41.81
2022-11-17T20:45:36.390Z,42.35
2022-11-17T20:53:30.450Z,42.6
2022-11-17T21:01:09.203Z,42.6
2022-11-17T21:08:55.093Z,42.72
2022-11-17T21:16:22.175Z,42.72
2022-11-17T21:24:03.049Z,42.67
2022-11-17T21:31:42.652Z,42.66
2022-11-17T21:39:22.633Z,42.71
2022-11-17T21:47:03.027Z,42.72
2022-11-17T21:54:46.286Z,42.71
2022-11-17T22:02:17.771Z,42.68
2022-11-17T22:09:47.648Z,42.64
2022-11-17T22:17:24.067Z,42.6
2022-11-17T22:25:37.924Z,42.59
2022-11-17T22:33:08.208Z,42.58
2022-11-17T22:40:54.305Z,42.5
2022-11-17T22:48:37.191Z,42.37
2022-11-17T22:56:25.503Z,42.42
2022-11-17T23:03:59.736Z,41.86
2022-11-17T23:11:36.367Z,41.75
2022-11-17T23:19:13.801Z,41.44
2022-11-17T23:26:44.526Z,41.21
2022-11-17T23:34:30.636Z,41.22
2022-11-17T23:42:32.562Z,41.45
2022-11-17T23:50:18.549Z,41.34
2022-11-17T23:58:02.265Z,41.41
